sensor_id;sensor_type;location;lat;lon;timestamp;P1;durP1;ratioP1;P2;durP2;ratioP2
4106;SDS011;21906;50.812;7.132;2022-11-24T00:01:16;7.90;;;5.43;;
4106;SDS011;21906;50.812;7.132;2022-11-24T00:03:44;9.03;;;5.93;;
4106;SDS011;21906;50.812;7.132;2022-11-24T00:06:15;6.70;;;4.80;;
4106;SDS011;21906;50.812;7.132;2022-11-24T00:08:42;11.67;;;5.60;;
4106;SDS011;21906;50.812;7.132;2022-11-24T00:11:10;9.10;;;5.10;;
4106;SDS011;21906;50.812;7.132;2022-11-24T00:13:38;8.90;;;5.63;;
4106;SDS011;21906;50.812;7.132;2022-11-24T00:16:08;9.30;;;5.13;;
4106;SDS011;21906;50.812;7.132;2022-11-24T00:18:38;5.33;;;4.23;;
4106;SDS011;21906;50.812;7.132;2022-11-24T00:21:05;8.27;;;4.43;;
4106;SDS011;21906;50.812;7.132;2022-11-24T00:23:31;6.33;;;4.60;;
4106;SDS011;21906;50.812;7.132;2022-11-24T00:26:07;6.17;;;4.17;;
4106;SDS011;21906;50.812;7.132;2022-11-24T00:28:40;5.97;;;4.73;;
4106;SDS011;21906;50.812;7.132;2022-11-24T00:34:04;3.97;;;3.57;;
4106;SDS011;21906;50.812;7.132;2022-11-24T00:36:39;6.90;;;4.50;;
4106;SDS011;21906;50.812;7.132;2022-11-24T00:39:07;5.13;;;4.13;;
4106;SDS011;21906;50.812;7.132;2022-11-24T00:41:36;5.10;;;4.17;;
4106;SDS011;21906;50.812;7.132;2022-11-24T00:44:02;4.77;;;4.00;;
4106;SDS011;21906;50.812;7.132;2022-11-24T00:46:28;5.10;;;4.60;;
4106;SDS011;21906;50.812;7.132;2022-11-24T00:48:54;6.70;;;4.27;;
4106;SDS011;21906;50.812;7.132;2022-11-24T00:51:21;4.20;;;3.80;;
4106;SDS011;21906;50.812;7.132;2022-11-24T00:53:48;5.70;;;4.20;;
4106;SDS011;21906;50.812;7.132;2022-11-24T00:56:14;8.50;;;4.40;;
4106;SDS011;21906;50.812;7.132;2022-11-24T00:58:40;5.43;;;4.23;;
4106;SDS011;21906;50.812;7.132;2022-11-24T01:01:10;11.03;;;4.40;;
4106;SDS011;21906;50.812;7.132;2022-11-24T01:03:41;11.93;;;4.50;;
4106;SDS011;21906;50.812;7.132;2022-11-24T01:06:08;7.33;;;3.43;;
4106;SDS011;21906;50.812;7.132;2022-11-24T01:08:36;6.80;;;3.80;;
4106;SDS011;21906;50.812;7.132;2022-11-24T01:11:10;4.97;;;3.50;;
4106;SDS011;21906;50.812;7.132;2022-11-24T01:13:39;5.87;;;3.57;;
4106;SDS011;21906;50.812;7.132;2022-11-24T01:16:11;14.73;;;3.43;;
4106;SDS011;21906;50.812;7.132;2022-11-24T01:18:42;5.40;;;3.03;;
4106;SDS011;21906;50.812;7.132;2022-11-24T01:21:08;9.40;;;3.67;;
4106;SDS011;21906;50.812;7.132;2022-11-24T01:23:34;5.40;;;3.43;;
4106;SDS011;21906;50.812;7.132;2022-11-24T01:26:02;6.03;;;2.80;;
4106;SDS011;21906;50.812;7.132;2022-11-24T01:28:29;5.50;;;3.33;;
4106;SDS011;21906;50.812;7.132;2022-11-24T01:30:56;5.87;;;3.80;;
4106;SDS011;21906;50.812;7.132;2022-11-24T01:33:22;6.93;;;3.43;;
4106;SDS011;21906;50.812;7.132;2022-11-24T01:35:48;4.00;;;3.00;;
4106;SDS011;21906;50.812;7.132;2022-11-24T01:38:13;5.63;;;2.77;;
4106;SDS011;21906;50.812;7.132;2022-11-24T01:40:39;8.20;;;3.57;;
4106;SDS011;21906;50.812;7.132;2022-11-24T01:43:13;5.67;;;3.17;;
4106;SDS011;21906;50.812;7.132;2022-11-24T01:45:44;8.27;;;3.10;;
4106;SDS011;21906;50.812;7.132;2022-11-24T01:48:15;8.60;;;3.40;;
4106;SDS011;21906;50.812;7.132;2022-11-24T01:50:47;6.27;;;3.53;;
4106;SDS011;21906;50.812;7.132;2022-11-24T01:53:19;11.30;;;3.77;;
4106;SDS011;21906;50.812;7.132;2022-11-24T01:55:46;8.07;;;3.00;;
4106;SDS011;21906;50.812;7.132;2022-11-24T01:58:17;6.27;;;2.97;;
4106;SDS011;21906;50.812;7.132;2022-11-24T02:00:50;7.53;;;2.80;;
4106;SDS011;21906;50.812;7.132;2022-11-24T02:03:17;9.13;;;3.43;;
4106;SDS011;21906;50.812;7.132;2022-11-24T02:06:02;5.13;;;2.60;;
4106;SDS011;21906;50.812;7.132;2022-11-24T02:08:33;7.50;;;3.10;;
4106;SDS011;21906;50.812;7.132;2022-11-24T02:11:21;6.67;;;2.90;;
4106;SDS011;21906;50.812;7.132;2022-11-24T02:13:48;6.60;;;2.80;;
4106;SDS011;21906;50.812;7.132;2022-11-24T02:16:15;10.77;;;3.27;;
4106;SDS011;21906;50.812;7.132;2022-11-24T02:18:41;11.33;;;3.53;;
4106;SDS011;21906;50.812;7.132;2022-11-24T02:21:08;7.73;;;3.40;;
4106;SDS011;21906;50.812;7.132;2022-11-24T02:26:43;8.53;;;3.77;;
4106;SDS011;21906;50.812;7.132;2022-11-24T02:29:11;5.63;;;3.07;;
4106;SDS011;21906;50.812;7.132;2022-11-24T02:31:43;9.97;;;3.87;;
4106;SDS011;21906;50.812;7.132;2022-11-24T02:34:13;11.33;;;3.77;;
4106;SDS011;21906;50.812;7.132;2022-11-24T02:36:38;7.83;;;3.27;;
4106;SDS011;21906;50.812;7.132;2022-11-24T02:39:04;8.33;;;3.00;;
4106;SDS011;21906;50.812;7.132;2022-11-24T02:41:35;6.00;;;2.90;;
4106;SDS011;21906;50.812;7.132;2022-11-24T02:44:02;5.83;;;2.70;;
4106;SDS011;21906;50.812;7.132;2022-11-24T02:46:28;7.70;;;3.20;;
4106;SDS011;21906;50.812;7.132;2022-11-24T02:48:53;8.33;;;3.00;;
4106;SDS011;21906;50.812;7.132;2022-11-24T02:51:19;7.20;;;3.00;;
4106;SDS011;21906;50.812;7.132;2022-11-24T02:53:45;4.90;;;3.20;;
4106;SDS011;21906;50.812;7.132;2022-11-24T02:56:10;8.73;;;2.87;;
4106;SDS011;21906;50.812;7.132;2022-11-24T02:58:36;5.80;;;2.50;;
4106;SDS011;21906;50.812;7.132;2022-11-24T03:01:02;7.33;;;2.87;;
4106;SDS011;21906;50.812;7.132;2022-11-24T03:03:28;8.73;;;3.30;;
4106;SDS011;21906;50.812;7.132;2022-11-24T03:05:54;7.83;;;2.67;;
4106;SDS011;21906;50.812;7.132;2022-11-24T03:08:20;10.23;;;2.27;;
4106;SDS011;21906;50.812;7.132;2022-11-24T03:10:45;8.10;;;2.57;;
4106;SDS011;21906;50.812;7.132;2022-11-24T03:13:11;4.57;;;2.17;;
4106;SDS011;21906;50.812;7.132;2022-11-24T03:15:37;5.40;;;3.10;;
4106;SDS011;21906;50.812;7.132;2022-11-24T03:18:03;9.40;;;2.47;;
4106;SDS011;21906;50.812;7.132;2022-11-24T03:20:29;7.93;;;2.50;;
4106;SDS011;21906;50.812;7.132;2022-11-24T03:22:55;6.57;;;2.30;;
4106;SDS011;21906;50.812;7.132;2022-11-24T03:25:21;10.50;;;3.07;;
4106;SDS011;21906;50.812;7.132;2022-11-24T03:27:46;4.70;;;2.33;;
4106;SDS011;21906;50.812;7.132;2022-11-24T03:30:12;8.60;;;2.57;;
4106;SDS011;21906;50.812;7.132;2022-11-24T03:32:39;8.30;;;2.70;;
4106;SDS011;21906;50.812;7.132;2022-11-24T03:35:06;11.13;;;2.37;;
4106;SDS011;21906;50.812;7.132;2022-11-24T03:37:32;3.77;;;2.13;;
4106;SDS011;21906;50.812;7.132;2022-11-24T03:39:58;9.47;;;2.60;;
4106;SDS011;21906;50.812;7.132;2022-11-24T03:42:24;6.43;;;2.53;;
4106;SDS011;21906;50.812;7.132;2022-11-24T03:44:49;7.13;;;2.80;;
4106;SDS011;21906;50.812;7.132;2022-11-24T03:47:15;11.37;;;2.43;;
4106;SDS011;21906;50.812;7.132;2022-11-24T03:49:40;6.97;;;2.37;;
4106;SDS011;21906;50.812;7.132;2022-11-24T03:52:07;8.13;;;2.23;;
4106;SDS011;21906;50.812;7.132;2022-11-24T03:54:33;8.17;;;2.97;;
4106;SDS011;21906;50.812;7.132;2022-11-24T03:56:58;6.43;;;2.67;;
4106;SDS011;21906;50.812;7.132;2022-11-24T03:59:24;8.53;;;3.03;;
4106;SDS011;21906;50.812;7.132;2022-11-24T04:01:49;9.37;;;2.80;;
4106;SDS011;21906;50.812;7.132;2022-11-24T04:04:15;6.47;;;2.47;;
4106;SDS011;21906;50.812;7.132;2022-11-24T04:06:41;10.73;;;2.77;;
4106;SDS011;21906;50.812;7.132;2022-11-24T04:09:06;6.90;;;2.80;;
4106;SDS011;21906;50.812;7.132;2022-11-24T04:11:33;4.87;;;2.40;;
4106;SDS011;21906;50.812;7.132;2022-11-24T04:14:17;8.93;;;2.90;;
4106;SDS011;21906;50.812;7.132;2022-11-24T04:16:43;7.20;;;2.67;;
4106;SDS011;21906;50.812;7.132;2022-11-24T04:19:09;8.20;;;2.80;;
4106;SDS011;21906;50.812;7.132;2022-11-24T04:21:34;8.60;;;2.50;;
4106;SDS011;21906;50.812;7.132;2022-11-24T04:24:00;7.43;;;2.70;;
4106;SDS011;21906;50.812;7.132;2022-11-24T04:26:26;13.87;;;2.93;;
4106;SDS011;21906;50.812;7.132;2022-11-24T04:28:52;9.70;;;2.57;;
4106;SDS011;21906;50.812;7.132;2022-11-24T04:31:18;9.13;;;2.67;;
4106;SDS011;21906;50.812;7.132;2022-11-24T04:33:43;6.10;;;2.60;;
4106;SDS011;21906;50.812;7.132;2022-11-24T04:36:09;7.50;;;2.50;;
4106;SDS011;21906;50.812;7.132;2022-11-24T04:38:35;8.07;;;2.10;;
4106;SDS011;21906;50.812;7.132;2022-11-24T04:41:00;7.43;;;2.80;;
4106;SDS011;21906;50.812;7.132;2022-11-24T04:43:30;6.83;;;3.37;;
4106;SDS011;21906;50.812;7.132;2022-11-24T04:45:59;7.47;;;2.67;;
4106;SDS011;21906;50.812;7.132;2022-11-24T04:48:25;6.73;;;2.80;;
4106;SDS011;21906;50.812;7.132;2022-11-24T04:50:51;7.67;;;2.43;;
4106;SDS011;21906;50.812;7.132;2022-11-24T04:53:17;9.60;;;3.00;;
4106;SDS011;21906;50.812;7.132;2022-11-24T04:55:43;12.53;;;3.13;;
4106;SDS011;21906;50.812;7.132;2022-11-24T04:58:09;13.97;;;4.10;;
4106;SDS011;21906;50.812;7.132;2022-11-24T05:00:35;8.87;;;2.40;;
4106;SDS011;21906;50.812;7.132;2022-11-24T05:03:02;6.43;;;3.13;;
4106;SDS011;21906;50.812;7.132;2022-11-24T05:05:28;5.47;;;2.70;;
4106;SDS011;21906;50.812;7.132;2022-11-24T05:07:53;8.30;;;3.00;;
4106;SDS011;21906;50.812;7.132;2022-11-24T05:10:19;8.13;;;3.07;;
4106;SDS011;21906;50.812;7.132;2022-11-24T05:13:01;10.23;;;2.87;;
4106;SDS011;21906;50.812;7.132;2022-11-24T05:15:29;5.70;;;2.30;;
4106;SDS011;21906;50.812;7.132;2022-11-24T05:17:55;7.50;;;2.70;;
4106;SDS011;21906;50.812;7.132;2022-11-24T05:20:21;9.50;;;3.20;;
4106;SDS011;21906;50.812;7.132;2022-11-24T05:22:46;9.07;;;3.30;;
4106;SDS011;21906;50.812;7.132;2022-11-24T05:25:12;5.90;;;2.70;;
4106;SDS011;21906;50.812;7.132;2022-11-24T05:27:38;6.73;;;2.80;;
4106;SDS011;21906;50.812;7.132;2022-11-24T05:30:04;15.53;;;4.53;;
4106;SDS011;21906;50.812;7.132;2022-11-24T05:32:31;8.90;;;3.20;;
4106;SDS011;21906;50.812;7.132;2022-11-24T05:34:57;8.90;;;2.80;;
4106;SDS011;21906;50.812;7.132;2022-11-24T05:37:24;11.40;;;2.53;;
4106;SDS011;21906;50.812;7.132;2022-11-24T05:39:52;9.10;;;3.07;;
4106;SDS011;21906;50.812;7.132;2022-11-24T05:42:18;8.87;;;3.10;;
4106;SDS011;21906;50.812;7.132;2022-11-24T05:45:03;7.10;;;3.10;;
4106;SDS011;21906;50.812;7.132;2022-11-24T05:47:29;8.23;;;3.13;;
4106;SDS011;21906;50.812;7.132;2022-11-24T05:49:54;8.40;;;3.00;;
4106;SDS011;21906;50.812;7.132;2022-11-24T05:52:20;12.33;;;2.70;;
4106;SDS011;21906;50.812;7.132;2022-11-24T05:54:46;7.57;;;2.70;;
4106;SDS011;21906;50.812;7.132;2022-11-24T05:57:11;5.50;;;2.50;;
4106;SDS011;21906;50.812;7.132;2022-11-24T05:59:37;9.90;;;2.70;;
4106;SDS011;21906;50.812;7.132;2022-11-24T06:02:03;6.33;;;2.80;;
4106;SDS011;21906;50.812;7.132;2022-11-24T06:04:29;8.50;;;2.50;;
4106;SDS011;21906;50.812;7.132;2022-11-24T06:06:55;7.80;;;2.83;;
4106;SDS011;21906;50.812;7.132;2022-11-24T06:09:20;9.10;;;3.00;;
4106;SDS011;21906;50.812;7.132;2022-11-24T06:11:46;9.47;;;3.00;;
4106;SDS011;21906;50.812;7.132;2022-11-24T06:14:12;8.63;;;2.73;;
4106;SDS011;21906;50.812;7.132;2022-11-24T06:16:38;9.80;;;2.80;;
4106;SDS011;21906;50.812;7.132;2022-11-24T06:19:04;8.83;;;2.60;;
4106;SDS011;21906;50.812;7.132;2022-11-24T06:21:30;6.93;;;3.00;;
4106;SDS011;21906;50.812;7.132;2022-11-24T06:23:56;8.63;;;3.10;;
4106;SDS011;21906;50.812;7.132;2022-11-24T06:26:22;9.90;;;3.37;;
4106;SDS011;21906;50.812;7.132;2022-11-24T06:28:48;9.37;;;3.17;;
4106;SDS011;21906;50.812;7.132;2022-11-24T06:31:13;8.40;;;3.40;;
4106;SDS011;21906;50.812;7.132;2022-11-24T06:33:39;8.13;;;2.90;;
4106;SDS011;21906;50.812;7.132;2022-11-24T06:36:06;8.77;;;3.10;;
4106;SDS011;21906;50.812;7.132;2022-11-24T06:38:34;13.07;;;3.73;;
4106;SDS011;21906;50.812;7.132;2022-11-24T06:41:01;9.00;;;3.87;;
4106;SDS011;21906;50.812;7.132;2022-11-24T06:43:31;10.20;;;2.97;;
4106;SDS011;21906;50.812;7.132;2022-11-24T06:45:58;14.27;;;3.17;;
4106;SDS011;21906;50.812;7.132;2022-11-24T06:48:24;8.50;;;2.80;;
4106;SDS011;21906;50.812;7.132;2022-11-24T06:50:51;8.50;;;3.00;;
4106;SDS011;21906;50.812;7.132;2022-11-24T06:53:17;6.83;;;3.20;;
4106;SDS011;21906;50.812;7.132;2022-11-24T06:55:43;8.93;;;3.03;;
4106;SDS011;21906;50.812;7.132;2022-11-24T06:58:10;5.33;;;3.20;;
4106;SDS011;21906;50.812;7.132;2022-11-24T07:00:36;9.50;;;3.73;;
4106;SDS011;21906;50.812;7.132;2022-11-24T07:03:03;14.33;;;3.23;;
4106;SDS011;21906;50.812;7.132;2022-11-24T07:05:29;11.43;;;3.20;;
4106;SDS011;21906;50.812;7.132;2022-11-24T07:07:57;9.30;;;3.33;;
4106;SDS011;21906;50.812;7.132;2022-11-24T07:10:24;14.03;;;3.47;;
4106;SDS011;21906;50.812;7.132;2022-11-24T07:12:50;9.47;;;3.63;;
4106;SDS011;21906;50.812;7.132;2022-11-24T07:15:15;9.70;;;3.07;;
4106;SDS011;21906;50.812;7.132;2022-11-24T07:17:41;7.83;;;3.00;;
4106;SDS011;21906;50.812;7.132;2022-11-24T07:20:07;9.50;;;2.83;;
4106;SDS011;21906;50.812;7.132;2022-11-24T07:22:33;6.80;;;2.87;;
4106;SDS011;21906;50.812;7.132;2022-11-24T07:24:59;11.67;;;2.40;;
4106;SDS011;21906;50.812;7.132;2022-11-24T07:27:28;8.97;;;3.03;;
4106;SDS011;21906;50.812;7.132;2022-11-24T07:29:54;8.70;;;2.83;;
4106;SDS011;21906;50.812;7.132;2022-11-24T07:32:19;9.50;;;2.63;;
4106;SDS011;21906;50.812;7.132;2022-11-24T07:34:45;10.00;;;3.30;;
4106;SDS011;21906;50.812;7.132;2022-11-24T07:37:12;8.77;;;3.27;;
4106;SDS011;21906;50.812;7.132;2022-11-24T07:39:38;7.97;;;3.13;;
4106;SDS011;21906;50.812;7.132;2022-11-24T07:42:04;9.13;;;2.93;;
4106;SDS011;21906;50.812;7.132;2022-11-24T07:44:30;4.63;;;2.40;;
4106;SDS011;21906;50.812;7.132;2022-11-24T07:46:56;5.17;;;2.40;;
4106;SDS011;21906;50.812;7.132;2022-11-24T07:49:22;9.93;;;2.37;;
4106;SDS011;21906;50.812;7.132;2022-11-24T07:51:47;5.50;;;2.63;;
4106;SDS011;21906;50.812;7.132;2022-11-24T07:54:13;2.90;;;2.10;;
4106;SDS011;21906;50.812;7.132;2022-11-24T07:56:38;6.20;;;2.50;;
4106;SDS011;21906;50.812;7.132;2022-11-24T07:59:04;4.80;;;2.40;;
4106;SDS011;21906;50.812;7.132;2022-11-24T08:01:30;4.13;;;3.00;;
4106;SDS011;21906;50.812;7.132;2022-11-24T08:03:56;7.17;;;3.10;;
4106;SDS011;21906;50.812;7.132;2022-11-24T08:06:22;8.23;;;3.00;;
4106;SDS011;21906;50.812;7.132;2022-11-24T08:08:48;6.20;;;3.07;;
4106;SDS011;21906;50.812;7.132;2022-11-24T08:11:14;3.50;;;2.63;;
4106;SDS011;21906;50.812;7.132;2022-11-24T08:13:42;2.80;;;2.43;;
4106;SDS011;21906;50.812;7.132;2022-11-24T08:16:12;4.60;;;2.50;;
4106;SDS011;21906;50.812;7.132;2022-11-24T08:18:39;5.20;;;2.30;;
4106;SDS011;21906;50.812;7.132;2022-11-24T08:21:05;3.13;;;1.83;;
4106;SDS011;21906;50.812;7.132;2022-11-24T08:23:32;3.03;;;2.17;;
4106;SDS011;21906;50.812;7.132;2022-11-24T08:25:58;2.73;;;2.20;;
4106;SDS011;21906;50.812;7.132;2022-11-24T08:28:29;5.87;;;2.17;;
4106;SDS011;21906;50.812;7.132;2022-11-24T08:31:02;4.03;;;2.03;;
4106;SDS011;21906;50.812;7.132;2022-11-24T08:33:28;4.50;;;2.40;;
4106;SDS011;21906;50.812;7.132;2022-11-24T08:35:54;4.20;;;2.10;;
4106;SDS011;21906;50.812;7.132;2022-11-24T08:38:20;2.70;;;1.97;;
4106;SDS011;21906;50.812;7.132;2022-11-24T08:40:46;2.67;;;1.77;;
4106;SDS011;21906;50.812;7.132;2022-11-24T08:43:12;2.77;;;2.00;;
4106;SDS011;21906;50.812;7.132;2022-11-24T08:45:37;5.20;;;2.30;;
4106;SDS011;21906;50.812;7.132;2022-11-24T08:48:03;3.10;;;2.20;;
4106;SDS011;21906;50.812;7.132;2022-11-24T08:50:29;4.27;;;2.03;;
4106;SDS011;21906;50.812;7.132;2022-11-24T08:52:55;6.40;;;2.07;;
4106;SDS011;21906;50.812;7.132;2022-11-24T08:55:20;5.70;;;2.10;;
4106;SDS011;21906;50.812;7.132;2022-11-24T08:57:46;6.33;;;2.30;;
4106;SDS011;21906;50.812;7.132;2022-11-24T09:00:12;4.00;;;1.70;;
4106;SDS011;21906;50.812;7.132;2022-11-24T09:02:38;3.80;;;1.97;;
4106;SDS011;21906;50.812;7.132;2022-11-24T09:05:04;4.23;;;2.17;;
4106;SDS011;21906;50.812;7.132;2022-11-24T09:07:29;3.13;;;1.73;;
4106;SDS011;21906;50.812;7.132;2022-11-24T09:09:55;2.83;;;1.90;;
4106;SDS011;21906;50.812;7.132;2022-11-24T09:12:21;3.17;;;2.00;;
4106;SDS011;21906;50.812;7.132;2022-11-24T09:14:46;3.17;;;2.00;;
4106;SDS011;21906;50.812;7.132;2022-11-24T09:17:12;6.10;;;2.10;;
4106;SDS011;21906;50.812;7.132;2022-11-24T09:19:37;4.73;;;1.87;;
4106;SDS011;21906;50.812;7.132;2022-11-24T09:22:03;2.53;;;2.33;;
4106;SDS011;21906;50.812;7.132;2022-11-24T09:24:29;7.10;;;2.00;;
4106;SDS011;21906;50.812;7.132;2022-11-24T09:26:54;6.07;;;1.87;;
4106;SDS011;21906;50.812;7.132;2022-11-24T09:29:20;4.17;;;2.03;;
4106;SDS011;21906;50.812;7.132;2022-11-24T09:31:46;3.73;;;1.90;;
4106;SDS011;21906;50.812;7.132;2022-11-24T09:34:13;4.33;;;2.20;;
4106;SDS011;21906;50.812;7.132;2022-11-24T09:36:39;4.80;;;1.80;;
4106;SDS011;21906;50.812;7.132;2022-11-24T09:39:05;3.00;;;1.43;;
4106;SDS011;21906;50.812;7.132;2022-11-24T09:41:34;4.03;;;1.70;;
4106;SDS011;21906;50.812;7.132;2022-11-24T09:50:14;5.20;;;1.87;;
4106;SDS011;21906;50.812;7.132;2022-11-24T09:58:34;4.30;;;2.20;;
4106;SDS011;21906;50.812;7.132;2022-11-24T10:01:03;5.57;;;1.67;;
4106;SDS011;21906;50.812;7.132;2022-11-24T10:03:46;4.70;;;2.30;;
4106;SDS011;21906;50.812;7.132;2022-11-24T10:06:20;4.30;;;1.83;;
4106;SDS011;21906;50.812;7.132;2022-11-24T10:09:04;5.33;;;2.07;;
4106;SDS011;21906;50.812;7.132;2022-11-24T10:20:08;4.87;;;2.50;;
4106;SDS011;21906;50.812;7.132;2022-11-24T10:28:17;3.03;;;1.90;;
4106;SDS011;21906;50.812;7.132;2022-11-24T10:30:43;5.10;;;2.20;;
4106;SDS011;21906;50.812;7.132;2022-11-24T10:33:15;6.83;;;1.90;;
4106;SDS011;21906;50.812;7.132;2022-11-24T10:35:47;4.57;;;1.80;;
4106;SDS011;21906;50.812;7.132;2022-11-24T10:40:44;3.43;;;1.80;;
4106;SDS011;21906;50.812;7.132;2022-11-24T10:43:37;7.20;;;1.90;;
4106;SDS011;21906;50.812;7.132;2022-11-24T10:46:23;6.57;;;1.57;;
4106;SDS011;21906;50.812;7.132;2022-11-24T10:48:56;7.00;;;1.93;;
4106;SDS011;21906;50.812;7.132;2022-11-24T10:54:23;6.67;;;2.13;;
4106;SDS011;21906;50.812;7.132;2022-11-24T10:56:50;5.00;;;2.23;;
4106;SDS011;21906;50.812;7.132;2022-11-24T11:01:49;3.00;;;1.67;;
4106;SDS011;21906;50.812;7.132;2022-11-24T11:04:48;4.23;;;1.60;;
4106;SDS011;21906;50.812;7.132;2022-11-24T11:07:19;9.27;;;2.60;;
4106;SDS011;21906;50.812;7.132;2022-11-24T11:09:51;5.43;;;1.77;;
4106;SDS011;21906;50.812;7.132;2022-11-24T11:12:48;8.57;;;1.93;;
4106;SDS011;21906;50.812;7.132;2022-11-24T11:15:27;4.70;;;2.60;;
4106;SDS011;21906;50.812;7.132;2022-11-24T11:17:58;5.73;;;1.67;;
4106;SDS011;21906;50.812;7.132;2022-11-24T11:22:58;3.60;;;1.97;;
4106;SDS011;21906;50.812;7.132;2022-11-24T11:25:36;4.67;;;2.00;;
4106;SDS011;21906;50.812;7.132;2022-11-24T11:28:20;3.53;;;1.60;;
4106;SDS011;21906;50.812;7.132;2022-11-24T11:30:57;5.50;;;2.83;;
4106;SDS011;21906;50.812;7.132;2022-11-24T11:33:27;5.80;;;2.20;;
4106;SDS011;21906;50.812;7.132;2022-11-24T11:35:55;4.13;;;2.47;;
4106;SDS011;21906;50.812;7.132;2022-11-24T11:38:22;5.73;;;2.00;;
4106;SDS011;21906;50.812;7.132;2022-11-24T11:40:57;4.90;;;2.03;;
4106;SDS011;21906;50.812;7.132;2022-11-24T11:43:26;7.23;;;2.10;;
4106;SDS011;21906;50.812;7.132;2022-11-24T11:46:02;5.37;;;1.97;;
4106;SDS011;21906;50.812;7.132;2022-11-24T11:48:34;4.80;;;1.67;;
4106;SDS011;21906;50.812;7.132;2022-11-24T11:56:59;4.50;;;2.27;;
4106;SDS011;21906;50.812;7.132;2022-11-24T12:05:11;7.40;;;2.17;;
4106;SDS011;21906;50.812;7.132;2022-11-24T12:08:38;7.70;;;2.20;;
4106;SDS011;21906;50.812;7.132;2022-11-24T12:24:56;9.40;;;2.13;;
4106;SDS011;21906;50.812;7.132;2022-11-24T12:30:13;3.63;;;1.63;;
4106;SDS011;21906;50.812;7.132;2022-11-24T12:35:50;6.17;;;2.10;;
4106;SDS011;21906;50.812;7.132;2022-11-24T12:38:38;9.97;;;2.20;;
4106;SDS011;21906;50.812;7.132;2022-11-24T12:41:29;6.30;;;2.10;;
4106;SDS011;21906;50.812;7.132;2022-11-24T12:47:55;7.20;;;2.07;;
4106;SDS011;21906;50.812;7.132;2022-11-24T12:50:43;5.87;;;2.00;;
4106;SDS011;21906;50.812;7.132;2022-11-24T12:53:26;8.97;;;2.20;;
4106;SDS011;21906;50.812;7.132;2022-11-24T12:56:04;3.80;;;2.10;;
4106;SDS011;21906;50.812;7.132;2022-11-24T13:09:05;5.30;;;2.07;;
4106;SDS011;21906;50.812;7.132;2022-11-24T13:14:21;3.60;;;1.93;;
4106;SDS011;21906;50.812;7.132;2022-11-24T13:17:00;5.73;;;1.90;;
4106;SDS011;21906;50.812;7.132;2022-11-24T13:19:45;5.10;;;2.37;;
4106;SDS011;21906;50.812;7.132;2022-11-24T13:22:13;7.00;;;2.00;;
4106;SDS011;21906;50.812;7.132;2022-11-24T13:24:42;6.60;;;2.13;;
4106;SDS011;21906;50.812;7.132;2022-11-24T13:29:46;5.33;;;2.07;;
4106;SDS011;21906;50.812;7.132;2022-11-24T13:40:35;2.47;;;1.80;;
4106;SDS011;21906;50.812;7.132;2022-11-24T13:46:00;3.50;;;2.00;;
4106;SDS011;21906;50.812;7.132;2022-11-24T13:53:31;12.73;;;2.20;;
4106;SDS011;21906;50.812;7.132;2022-11-24T13:56:18;4.63;;;1.97;;
4106;SDS011;21906;50.812;7.132;2022-11-24T13:58:55;3.50;;;2.10;;
4106;SDS011;21906;50.812;7.132;2022-11-24T14:08:54;3.17;;;2.20;;
4106;SDS011;21906;50.812;7.132;2022-11-24T14:11:23;4.53;;;2.27;;
4106;SDS011;21906;50.812;7.132;2022-11-24T14:13:51;4.73;;;2.20;;
4106;SDS011;21906;50.812;7.132;2022-11-24T14:16:18;3.50;;;1.90;;
4106;SDS011;21906;50.812;7.132;2022-11-24T14:18:46;3.90;;;2.00;;
4106;SDS011;21906;50.812;7.132;2022-11-24T14:23:49;5.07;;;2.10;;
4106;SDS011;21906;50.812;7.132;2022-11-24T14:26:37;4.77;;;2.13;;
4106;SDS011;21906;50.812;7.132;2022-11-24T14:29:14;6.67;;;2.23;;
4106;SDS011;21906;50.812;7.132;2022-11-24T14:31:50;8.10;;;2.50;;
4106;SDS011;21906;50.812;7.132;2022-11-24T14:34:21;5.63;;;3.00;;
4106;SDS011;21906;50.812;7.132;2022-11-24T14:36:49;4.33;;;2.30;;
4106;SDS011;21906;50.812;7.132;2022-11-24T14:39:16;5.00;;;2.07;;
4106;SDS011;21906;50.812;7.132;2022-11-24T14:41:51;4.27;;;2.20;;
4106;SDS011;21906;50.812;7.132;2022-11-24T14:44:42;3.10;;;2.33;;
4106;SDS011;21906;50.812;7.132;2022-11-24T14:47:16;6.20;;;2.07;;
4106;SDS011;21906;50.812;7.132;2022-11-24T14:49:43;6.93;;;2.20;;
4106;SDS011;21906;50.812;7.132;2022-11-24T14:52:12;6.23;;;2.77;;
4106;SDS011;21906;50.812;7.132;2022-11-24T14:54:47;5.30;;;2.20;;
4106;SDS011;21906;50.812;7.132;2022-11-24T15:00:05;5.03;;;2.40;;
4106;SDS011;21906;50.812;7.132;2022-11-24T15:05:08;4.37;;;2.40;;
4106;SDS011;21906;50.812;7.132;2022-11-24T15:07:34;7.60;;;2.33;;
4106;SDS011;21906;50.812;7.132;2022-11-24T15:10:04;4.50;;;2.33;;
4106;SDS011;21906;50.812;7.132;2022-11-24T15:12:41;6.80;;;2.40;;
4106;SDS011;21906;50.812;7.132;2022-11-24T15:17:43;3.90;;;2.17;;
4106;SDS011;21906;50.812;7.132;2022-11-24T15:23:16;6.17;;;2.30;;
4106;SDS011;21906;50.812;7.132;2022-11-24T15:28:26;6.00;;;2.70;;
4106;SDS011;21906;50.812;7.132;2022-11-24T15:30:54;5.70;;;2.67;;
4106;SDS011;21906;50.812;7.132;2022-11-24T15:33:23;8.10;;;2.53;;
4106;SDS011;21906;50.812;7.132;2022-11-24T15:35:49;6.63;;;2.33;;
4106;SDS011;21906;50.812;7.132;2022-11-24T15:38:14;5.27;;;2.27;;
4106;SDS011;21906;50.812;7.132;2022-11-24T15:40:41;4.83;;;2.20;;
4106;SDS011;21906;50.812;7.132;2022-11-24T15:43:54;6.70;;;2.50;;
4106;SDS011;21906;50.812;7.132;2022-11-24T15:45:55;11.17;;;2.90;;
4106;SDS011;21906;50.812;7.132;2022-11-24T15:48:21;6.33;;;2.37;;
4106;SDS011;21906;50.812;7.132;2022-11-24T15:50:47;5.27;;;2.20;;
4106;SDS011;21906;50.812;7.132;2022-11-24T15:53:18;7.70;;;2.50;;
4106;SDS011;21906;50.812;7.132;2022-11-24T15:55:49;12.20;;;2.90;;
4106;SDS011;21906;50.812;7.132;2022-11-24T15:58:16;8.23;;;2.70;;
4106;SDS011;21906;50.812;7.132;2022-11-24T16:00:43;6.33;;;2.70;;
4106;SDS011;21906;50.812;7.132;2022-11-24T16:03:09;5.30;;;2.47;;
4106;SDS011;21906;50.812;7.132;2022-11-24T16:05:37;4.80;;;2.27;;
4106;SDS011;21906;50.812;7.132;2022-11-24T16:08:05;5.00;;;2.03;;
4106;SDS011;21906;50.812;7.132;2022-11-24T16:10:35;6.60;;;3.00;;
4106;SDS011;21906;50.812;7.132;2022-11-24T16:13:01;7.60;;;2.73;;
4106;SDS011;21906;50.812;7.132;2022-11-24T16:15:27;6.80;;;3.33;;
4106;SDS011;21906;50.812;7.132;2022-11-24T16:17:52;3.53;;;3.23;;
4106;SDS011;21906;50.812;7.132;2022-11-24T16:20:18;8.20;;;3.20;;
4106;SDS011;21906;50.812;7.132;2022-11-24T16:22:44;8.20;;;3.37;;
4106;SDS011;21906;50.812;7.132;2022-11-24T16:25:10;5.40;;;2.50;;
4106;SDS011;21906;50.812;7.132;2022-11-24T16:27:36;6.93;;;3.23;;
4106;SDS011;21906;50.812;7.132;2022-11-24T16:30:03;5.20;;;3.07;;
4106;SDS011;21906;50.812;7.132;2022-11-24T16:32:29;6.57;;;3.50;;
4106;SDS011;21906;50.812;7.132;2022-11-24T16:34:55;6.47;;;3.40;;
4106;SDS011;21906;50.812;7.132;2022-11-24T16:37:21;5.87;;;3.30;;
4106;SDS011;21906;50.812;7.132;2022-11-24T16:39:47;9.53;;;3.20;;
4106;SDS011;21906;50.812;7.132;2022-11-24T16:42:12;8.43;;;3.20;;
4106;SDS011;21906;50.812;7.132;2022-11-24T16:44:38;6.43;;;3.03;;
4106;SDS011;21906;50.812;7.132;2022-11-24T16:47:04;6.87;;;3.20;;
4106;SDS011;21906;50.812;7.132;2022-11-24T16:49:30;5.53;;;3.07;;
4106;SDS011;21906;50.812;7.132;2022-11-24T16:51:56;9.40;;;2.77;;
4106;SDS011;21906;50.812;7.132;2022-11-24T16:54:21;4.77;;;2.60;;
4106;SDS011;21906;50.812;7.132;2022-11-24T16:56:47;5.83;;;3.03;;
4106;SDS011;21906;50.812;7.132;2022-11-24T16:59:13;4.37;;;2.40;;
4106;SDS011;21906;50.812;7.132;2022-11-24T17:01:38;8.53;;;3.37;;
4106;SDS011;21906;50.812;7.132;2022-11-24T17:04:05;7.27;;;2.67;;
4106;SDS011;21906;50.812;7.132;2022-11-24T17:06:31;4.63;;;2.70;;
4106;SDS011;21906;50.812;7.132;2022-11-24T17:08:57;7.97;;;2.73;;
4106;SDS011;21906;50.812;7.132;2022-11-24T17:11:24;7.40;;;2.90;;
4106;SDS011;21906;50.812;7.132;2022-11-24T17:13:51;7.80;;;3.00;;
4106;SDS011;21906;50.812;7.132;2022-11-24T17:16:21;6.17;;;3.00;;
4106;SDS011;21906;50.812;7.132;2022-11-24T17:18:48;7.30;;;2.80;;
4106;SDS011;21906;50.812;7.132;2022-11-24T17:21:15;13.20;;;3.50;;
4106;SDS011;21906;50.812;7.132;2022-11-24T17:23:44;6.63;;;2.90;;